LRSM - SATU MARE

Compiled: 11:35:17 on 21/04/2018

Latest METAR/SPECI Reports

METAR LRSM 211130Z 26007KT 220V320 CAVOK 22/06 Q1020=

Previous reports

METAR LRSM 211100Z 24007KT 200V260 CAVOK 21/05 Q1020=
METAR LRSM 211030Z 26006KT 210V320 CAVOK 21/05 Q1021=
METAR LRSM 211000Z 26006KT 230V310 CAVOK 20/05 Q1021=
METAR LRSM 210930Z 25004KT 180V320 CAVOK 20/07 Q1021=

Latest TAF report

TAF LRSM 211100Z 2112/2121 25008KT CAVOK=

Valid WARNINGS

No valid warnings for LRSM